Time;durP1;ratioP1;P1;durP2;ratioP2;P2;SDS_P1;SDS_P2;PMS_P1;PMS_P2;Temp;Humidity;BMP_temperature;BMP_pressure;BME280_temperature;BME280_humidity;BME280_pressure;Samples;Min_cycle;Max_cycle;Signal;HPM_P1;HPM_P2
2021/03/10 00:02:05;;;;;;;20.70;9.43;;;;;;;;;;5073880;28;20021;-51
2021/03/10 00:04:31;;;;;;;25.42;10.60;;;;;;;;;;5072028;28;20082;-51
2021/03/10 00:06:57;;;;;;;21.52;11.27;;;;;;;;;;5073587;28;20457;-51
2021/03/10 00:09:23;;;;;;;28.13;11.25;;;;;;;;;;5073925;28;20032;-51
2021/03/10 00:11:49;;;;;;;24.90;10.32;;;;;;;;;;5073828;28;20234;-51
2021/03/10 00:14:15;;;;;;;18.17;8.68;;;;;;;;;;5073625;28;20036;-51
2021/03/10 00:16:42;;;;;;;18.48;8.40;;;;;;;;;;5056543;28;20061;-51
2021/03/10 00:19:08;;;;;;;18.30;10.10;;;;;;;;;;5061400;28;20039;-51
2021/03/10 00:21:34;;;;;;;21.13;9.85;;;;;;;;;;5073589;28;20024;-51
2021/03/10 00:24:00;;;;;;;19.27;9.82;;;;;;;;;;5073637;28;20024;-51
2021/03/10 00:26:26;;;;;;;24.60;10.88;;;;;;;;;;5071955;28;20446;-51
2021/03/10 00:28:52;;;;;;;23.35;10.82;;;;;;;;;;5073406;28;20103;-51
2021/03/10 00:31:17;;;;;;;28.50;11.45;;;;;;;;;;5073652;28;20124;-51
2021/03/10 00:33:43;;;;;;;27.27;11.32;;;;;;;;;;5073661;28;20020;-51
2021/03/10 00:36:10;;;;;;;23.58;10.95;;;;;;;;;;5071547;28;20029;-51
2021/03/10 00:38:36;;;;;;;24.65;11.23;;;;;;;;;;5073378;28;20051;-51
2021/03/10 00:41:02;;;;;;;27.05;10.93;;;;;;;;;;5072842;28;20058;-51
2021/03/10 00:43:28;;;;;;;20.75;11.00;;;;;;;;;;5073359;28;20037;-51
2021/03/10 00:45:54;;;;;;;25.15;10.48;;;;;;;;;;5073109;28;20023;-51
2021/03/10 00:48:20;;;;;;;23.83;11.18;;;;;;;;;;5071243;28;20032;-51
2021/03/10 00:50:46;;;;;;;21.80;10.95;;;;;;;;;;5072347;28;20025;-51
2021/03/10 00:53:12;;;;;;;21.83;10.15;;;;;;;;;;5073104;28;20058;-51
2021/03/10 00:55:38;;;;;;;21.80;10.93;;;;;;;;;;5073013;28;20029;-51
2021/03/10 00:58:04;;;;;;;19.98;9.73;;;;;;;;;;5071222;28;20412;-51
2021/03/10 01:00:30;;;;;;;22.58;10.68;;;;;;;;;;5072742;28;20020;-51
2021/03/10 01:02:56;;;;;;;23.92;10.48;;;;;;;;;;5059680;28;20112;-51
2021/03/10 01:05:22;;;;;;;27.30;10.88;;;;;;;;;;5052750;28;20159;-51
2021/03/10 01:07:48;;;;;;;23.83;10.38;;;;;;;;;;5054365;28;20107;-51
2021/03/10 01:10:15;;;;;;;23.05;11.48;;;;;;;;;;5073072;28;20064;-51
2021/03/10 01:12:41;;;;;;;21.27;10.40;;;;;;;;;;5073172;28;20025;-51
2021/03/10 01:15:08;;;;;;;28.67;12.98;;;;;;;;;;5072711;28;20082;-51
2021/03/10 01:17:34;;;;;;;20.70;10.32;;;;;;;;;;5072796;28;20331;-51
2021/03/10 01:20:00;;;;;;;24.00;11.45;;;;;;;;;;5071287;28;20461;-51
2021/03/10 01:22:26;;;;;;;28.15;11.18;;;;;;;;;;5066769;28;20108;-51
2021/03/10 01:24:52;;;;;;;22.27;10.50;;;;;;;;;;5053036;28;20424;-51
2021/03/10 01:27:18;;;;;;;26.52;11.57;;;;;;;;;;5052599;28;20017;-51
2021/03/10 01:29:45;;;;;;;26.92;12.00;;;;;;;;;;5053641;28;20128;-51
2021/03/10 01:32:11;;;;;;;21.38;10.27;;;;;;;;;;5052747;28;20433;-51
2021/03/10 01:34:37;;;;;;;25.00;10.88;;;;;;;;;;5052855;28;20047;-51
2021/03/10 01:37:03;;;;;;;24.15;10.45;;;;;;;;;;5052518;28;20021;-51
2021/03/10 01:39:29;;;;;;;26.83;10.80;;;;;;;;;;5052882;28;20362;-51
2021/03/10 01:41:57;;;;;;;23.52;11.38;;;;;;;;;;5053682;28;20021;-51
2021/03/10 01:44:23;;;;;;;25.73;11.48;;;;;;;;;;5052452;28;20056;-51
2021/03/10 01:46:49;;;;;;;25.60;10.88;;;;;;;;;;5052476;28;20443;-51
2021/03/10 01:49:15;;;;;;;21.23;10.05;;;;;;;;;;5067894;28;20093;-51
2021/03/10 01:51:41;;;;;;;23.90;10.82;;;;;;;;;;5057071;28;20074;-51
2021/03/10 01:54:07;;;;;;;29.38;11.48;;;;;;;;;;5052472;28;20451;-51
2021/03/10 01:56:34;;;;;;;22.50;10.38;;;;;;;;;;5052487;28;20037;-51
2021/03/10 01:59:00;;;;;;;22.15;11.02;;;;;;;;;;5052051;28;20454;-51
2021/03/10 02:01:26;;;;;;;26.77;10.60;;;;;;;;;;5055894;28;20021;-51
2021/03/10 02:03:52;;;;;;;24.75;9.13;;;;;;;;;;5056396;28;20024;-51
2021/03/10 02:06:28;;;;;;;24.33;10.75;;;;;;;;;;5056105;28;20025;-51
2021/03/10 02:09:02;;;;;;;26.40;11.23;;;;;;;;;;5056013;28;20053;-51
2021/03/10 02:11:37;;;;;;;21.13;9.68;;;;;;;;;;5059313;28;20028;-51
2021/03/10 02:14:18;;;;;;;19.77;9.63;;;;;;;;;;5076056;28;20044;-51
2021/03/10 02:16:47;;;;;;;18.67;9.02;;;;;;;;;;5055887;28;20033;-51
2021/03/10 02:19:13;;;;;;;17.25;8.23;;;;;;;;;;5055805;28;20033;-51
2021/03/10 02:21:49;;;;;;;23.90;9.85;;;;;;;;;;5056343;28;20029;-51
2021/03/10 02:24:35;;;;;;;19.25;10.50;;;;;;;;;;5056177;28;20112;-51
2021/03/10 02:27:10;;;;;;;28.60;9.50;;;;;;;;;;5055391;28;20064;-51
2021/03/10 02:29:38;;;;;;;23.15;10.00;;;;;;;;;;5055759;28;20021;-51
2021/03/10 02:32:05;;;;;;;23.77;10.15;;;;;;;;;;5055461;28;20055;-51
2021/03/10 02:34:31;;;;;;;20.33;10.18;;;;;;;;;;5056678;28;20076;-51
2021/03/10 02:36:58;;;;;;;26.70;10.82;;;;;;;;;;5055493;28;20028;-51
2021/03/10 02:39:24;;;;;;;25.15;11.23;;;;;;;;;;5055688;28;20024;-50
2021/03/10 02:41:51;;;;;;;20.00;10.30;;;;;;;;;;5065867;28;20470;-51
2021/03/10 02:44:19;;;;;;;24.38;10.27;;;;;;;;;;5056699;28;20029;-51
2021/03/10 02:46:45;;;;;;;25.77;10.43;;;;;;;;;;5054969;28;20442;-51
2021/03/10 02:49:11;;;;;;;27.08;10.80;;;;;;;;;;5055470;28;20021;-51
2021/03/10 02:51:37;;;;;;;25.30;10.52;;;;;;;;;;5055403;28;20031;-51
2021/03/10 02:54:04;;;;;;;25.77;9.13;;;;;;;;;;5056501;28;20070;-51
2021/03/10 02:56:30;;;;;;;20.17;10.00;;;;;;;;;;5055315;28;20060;-51
2021/03/10 02:58:56;;;;;;;22.98;10.10;;;;;;;;;;5054915;28;20102;-51
2021/03/10 03:01:22;;;;;;;24.05;9.73;;;;;;;;;;5055903;28;20033;-51
2021/03/10 03:03:48;;;;;;;18.17;9.15;;;;;;;;;;5055277;28;20021;-51
2021/03/10 03:06:14;;;;;;;25.05;11.77;;;;;;;;;;5056197;28;20061;-51
2021/03/10 03:08:41;;;;;;;21.20;9.93;;;;;;;;;;5054851;28;20033;-51
2021/03/10 03:11:07;;;;;;;19.92;9.02;;;;;;;;;;5064996;28;20028;-51
2021/03/10 03:13:34;;;;;;;18.20;8.40;;;;;;;;;;5074474;28;20450;-51
2021/03/10 03:16:01;;;;;;;16.30;7.93;;;;;;;;;;5072774;28;20037;-51
2021/03/10 03:18:28;;;;;;;18.73;9.15;;;;;;;;;;5063689;28;20029;-51
2021/03/10 03:20:54;;;;;;;14.98;8.30;;;;;;;;;;5055045;28;20056;-51
2021/03/10 03:23:21;;;;;;;22.13;9.65;;;;;;;;;;5054719;28;20032;-51
2021/03/10 03:25:47;;;;;;;18.05;9.60;;;;;;;;;;5055880;28;20024;-51
2021/03/10 03:28:14;;;;;;;24.80;9.30;;;;;;;;;;5054110;28;20055;-51
2021/03/10 03:30:41;;;;;;;16.15;8.25;;;;;;;;;;5054448;28;20455;-51
2021/03/10 03:33:14;;;;;;;19.70;9.30;;;;;;;;;;5054343;28;20454;-51
2021/03/10 03:35:40;;;;;;;18.70;8.38;;;;;;;;;;5069857;28;20045;-51
2021/03/10 03:38:07;;;;;;;23.92;9.23;;;;;;;;;;5049788;28;20025;-51
2021/03/10 03:40:33;;;;;;;22.17;8.95;;;;;;;;;;5054102;28;20036;-51
2021/03/10 03:42:59;;;;;;;16.13;8.13;;;;;;;;;;5054174;28;20032;-51
2021/03/10 03:45:25;;;;;;;20.60;9.02;;;;;;;;;;5055334;28;20588;-51
2021/03/10 03:47:52;;;;;;;18.05;8.15;;;;;;;;;;5054074;28;20051;-51
2021/03/10 03:50:18;;;;;;;19.60;8.70;;;;;;;;;;5054177;28;20021;-51
2021/03/10 03:52:45;;;;;;;21.13;8.43;;;;;;;;;;5054093;28;20028;-51
2021/03/10 03:55:11;;;;;;;18.13;8.30;;;;;;;;;;5055024;28;20417;-51
2021/03/10 03:57:38;;;;;;;16.25;8.75;;;;;;;;;;5053849;28;20040;-51
2021/03/10 04:00:08;;;;;;;18.02;8.52;;;;;;;;;;5068472;28;20028;-51
2021/03/10 04:02:34;;;;;;;;;;;;;;;;;;5074347;28;20031;-50
2021/03/10 04:05:00;;;;;;;18.13;8.02;;;;;;;;;;5073549;28;19908;-51
2021/03/10 04:07:26;;;;;;;21.58;8.80;;;;;;;;;;5055698;28;20021;-51
2021/03/10 04:09:52;;;;;;;22.10;8.68;;;;;;;;;;5053665;28;20091;-51
2021/03/10 04:12:18;;;;;;;16.65;9.20;;;;;;;;;;5054016;28;20108;-51
2021/03/10 04:14:44;;;;;;;17.35;7.43;;;;;;;;;;5053832;28;20040;-51
2021/03/10 04:17:11;;;;;;;23.55;9.35;;;;;;;;;;5054432;28;20588;-51
2021/03/10 04:19:37;;;;;;;19.17;9.23;;;;;;;;;;5053772;28;20025;-51
2021/03/10 04:22:03;;;;;;;20.30;8.43;;;;;;;;;;5053792;28;20092;-51
2021/03/10 04:24:29;;;;;;;17.10;8.73;;;;;;;;;;5052391;28;20350;-51
2021/03/10 04:26:55;;;;;;;17.92;8.18;;;;;;;;;;5054728;28;20021;-51
2021/03/10 04:29:21;;;;;;;20.13;9.15;;;;;;;;;;5053302;28;20025;-51
2021/03/10 04:31:46;;;;;;;16.58;8.25;;;;;;;;;;5053629;28;20032;-51
2021/03/10 04:34:12;;;;;;;15.82;8.65;;;;;;;;;;5053481;28;20021;-51
2021/03/10 04:36:38;;;;;;;18.10;7.93;;;;;;;;;;5054111;28;20025;-51
2021/03/10 04:39:04;;;;;;;16.80;8.35;;;;;;;;;;5072908;28;20120;-51
2021/03/10 04:41:30;;;;;;;18.60;8.05;;;;;;;;;;5073206;28;20055;-51
2021/03/10 04:43:56;;;;;;;18.40;7.88;;;;;;;;;;5073348;28;20036;-51
2021/03/10 04:46:22;;;;;;;18.13;9.10;;;;;;;;;;5073557;28;20346;-51
2021/03/10 04:48:48;;;;;;;19.50;8.20;;;;;;;;;;5071283;28;20107;-51
2021/03/10 04:51:14;;;;;;;18.88;8.60;;;;;;;;;;5073328;28;20354;-51
2021/03/10 04:53:40;;;;;;;20.83;8.25;;;;;;;;;;5072459;28;20438;-51
2021/03/10 04:56:07;;;;;;;22.70;9.88;;;;;;;;;;5073279;28;20170;-51
2021/03/10 04:58:33;;;;;;;17.25;8.30;;;;;;;;;;5054246;28;20029;-51
2021/03/10 05:00:59;;;;;;;20.35;8.48;;;;;;;;;;5053008;28;20470;-51
2021/03/10 05:03:25;;;;;;;19.27;9.23;;;;;;;;;;5052994;28;20461;-51
2021/03/10 05:05:51;;;;;;;19.38;8.07;;;;;;;;;;5052951;28;20363;-51
2021/03/10 05:08:17;;;;;;;18.67;8.75;;;;;;;;;;5071201;28;20021;-51
2021/03/10 05:10:43;;;;;;;19.30;8.93;;;;;;;;;;5071918;28;20037;-51
2021/03/10 05:13:09;;;;;;;21.10;9.77;;;;;;;;;;5072984;28;20439;-51
2021/03/10 05:15:35;;;;;;;25.25;9.93;;;;;;;;;;5073001;28;20068;-51
2021/03/10 05:18:01;;;;;;;19.20;8.95;;;;;;;;;;5072514;28;20054;-51
2021/03/10 05:20:27;;;;;;;25.27;10.13;;;;;;;;;;5071237;28;20457;-51
2021/03/10 05:22:53;;;;;;;19.48;8.93;;;;;;;;;;5072553;28;20043;-51
2021/03/10 05:25:19;;;;;;;24.45;9.57;;;;;;;;;;5059156;28;20100;-51
2021/03/10 05:27:45;;;;;;;21.50;10.23;;;;;;;;;;5052624;28;20033;-51
2021/03/10 05:30:11;;;;;;;23.27;9.30;;;;;;;;;;5053830;28;20047;-51
2021/03/10 05:32:38;;;;;;;17.00;8.63;;;;;;;;;;5052989;28;20029;-51
2021/03/10 05:35:04;;;;;;;19.40;8.57;;;;;;;;;;5052490;28;20128;-51
2021/03/10 05:37:30;;;;;;;16.73;8.68;;;;;;;;;;5056662;28;20025;-51
2021/03/10 05:39:56;;;;;;;18.85;8.88;;;;;;;;;;5056686;28;20021;-51
2021/03/10 05:42:22;;;;;;;20.27;9.18;;;;;;;;;;5057697;28;20122;-51
2021/03/10 05:44:52;;;;;;;21.80;8.82;;;;;;;;;;5056750;28;20049;-51
2021/03/10 05:47:19;;;;;;;32.60;10.17;;;;;;;;;;5056396;28;20108;-51
2021/03/10 05:49:46;;;;;;;24.13;9.50;;;;;;;;;;5056297;28;20099;-51
2021/03/10 05:52:12;;;;;;;18.08;8.77;;;;;;;;;;5057840;28;20029;-51
2021/03/10 05:54:38;;;;;;;24.30;9.73;;;;;;;;;;5056481;28;20025;-51
2021/03/10 05:57:05;;;;;;;23.70;9.57;;;;;;;;;;5056569;28;20025;-51
2021/03/10 05:59:31;;;;;;;18.38;9.07;;;;;;;;;;5056336;28;20021;-51
2021/03/10 06:01:57;;;;;;;20.08;8.27;;;;;;;;;;5058360;28;20814;-51
2021/03/10 06:04:24;;;;;;;25.52;9.75;;;;;;;;;;5055961;28;20028;-51
2021/03/10 06:06:50;;;;;;;23.13;9.98;;;;;;;;;;5062382;28;20082;-51
2021/03/10 06:09:17;;;;;;;29.50;10.13;;;;;;;;;;5076230;28;20107;-51
2021/03/10 06:12:12;;;;;;;21.10;9.63;;;;;;;;;;5076426;28;20052;-51
2021/03/10 06:14:38;;;;;;;26.45;10.80;;;;;;;;;;5054844;28;20132;-51
2021/03/10 06:17:11;;;;;;;20.48;9.25;;;;;;;;;;5053097;28;20117;-51
2021/03/10 06:19:43;;;;;;;29.40;9.90;;;;;;;;;;5060356;28;20116;-51
2021/03/10 06:22:10;;;;;;;21.27;9.07;;;;;;;;;;5073523;28;20029;-51
2021/03/10 06:24:36;;;;;;;28.00;10.55;;;;;;;;;;5071742;28;20060;-51
2021/03/10 06:27:03;;;;;;;28.65;10.88;;;;;;;;;;5073056;28;20050;-51
2021/03/10 06:29:29;;;;;;;33.70;9.88;;;;;;;;;;5073065;28;20442;-51
2021/03/10 06:32:04;;;;;;;29.10;11.32;;;;;;;;;;5073439;28;20036;-51
2021/03/10 06:34:30;;;;;;;24.15;10.30;;;;;;;;;;5071270;28;20136;-51
2021/03/10 06:36:56;;;;;;;25.60;9.88;;;;;;;;;;5072720;28;20104;-51
2021/03/10 06:39:26;;;;;;;20.60;8.40;;;;;;;;;;5072969;28;20536;-51
2021/03/10 06:41:52;;;;;;;;;;;;;;;;;;5073262;28;20037;-51
2021/03/10 06:44:18;;;;;;;25.90;10.82;;;;;;;;;;5065805;28;19916;-51
2021/03/10 06:46:58;;;;;;;24.45;11.32;;;;;;;;;;5063658;28;20204;-51
2021/03/10 06:49:28;;;;;;;29.05;10.57;;;;;;;;;;5053795;28;20028;-51
2021/03/10 06:51:58;;;;;;;25.70;9.73;;;;;;;;;;5054715;28;20041;-51
2021/03/10 06:54:25;;;;;;;21.45;9.50;;;;;;;;;;5055547;28;20348;-51
2021/03/10 06:57:00;;;;;;;29.00;11.43;;;;;;;;;;5055651;28;20067;-51
2021/03/10 06:59:26;;;;;;;29.85;10.70;;;;;;;;;;5055154;28;20048;-51
2021/03/10 07:01:52;;;;;;;29.98;10.27;;;;;;;;;;5055318;28;20025;-51
2021/03/10 07:04:18;;;;;;;28.48;10.68;;;;;;;;;;5055063;28;20027;-51
2021/03/10 07:06:44;;;;;;;25.48;11.02;;;;;;;;;;5068219;28;20058;-51
2021/03/10 07:09:13;;;;;;;25.40;10.25;;;;;;;;;;5074775;28;20032;-51
2021/03/10 07:11:40;;;;;;;23.20;8.73;;;;;;;;;;5075238;28;20020;-51
2021/03/10 07:14:06;;;;;;;29.00;12.00;;;;;;;;;;5075036;28;20313;-51
2021/03/10 07:16:33;;;;;;;26.65;9.52;;;;;;;;;;5074120;28;20115;-51
2021/03/10 07:19:04;;;;;;;20.35;8.63;;;;;;;;;;5080144;28;20450;-51
2021/03/10 07:21:34;;;;;;;28.25;10.23;;;;;;;;;;5068621;28;20047;-51
2021/03/10 07:24:01;;;;;;;27.05;10.32;;;;;;;;;;5067057;28;20028;-51
2021/03/10 07:26:28;;;;;;;29.60;10.80;;;;;;;;;;5066636;28;20032;-51
2021/03/10 07:28:56;;;;;;;27.77;10.82;;;;;;;;;;5074461;28;20024;-51
2021/03/10 07:31:24;;;;;;;31.85;11.60;;;;;;;;;;5069434;28;20461;-51
2021/03/10 07:33:54;;;;;;;28.40;11.63;;;;;;;;;;5074368;28;20029;-51
2021/03/10 07:36:31;;;;;;;27.73;11.00;;;;;;;;;;5073502;28;20065;-51
2021/03/10 07:38:57;;;;;;;26.63;10.95;;;;;;;;;;5068373;28;20036;-51
2021/03/10 07:41:31;;;;;;;35.42;12.30;;;;;;;;;;5069212;28;20537;-51
2021/03/10 07:43:58;;;;;;;29.52;10.52;;;;;;;;;;5067452;28;20134;-51
2021/03/10 07:46:26;;;;;;;31.85;11.77;;;;;;;;;;5068731;28;20369;-51
2021/03/10 07:48:53;;;;;;;25.48;10.63;;;;;;;;;;5069367;28;20108;-51
2021/03/10 07:51:32;;;;;;;23.73;9.70;;;;;;;;;;5069122;28;20105;-51
2021/03/10 07:53:59;;;;;;;36.35;11.35;;;;;;;;;;5062461;28;20037;-51
2021/03/10 07:56:29;;;;;;;27.45;10.35;;;;;;;;;;5087471;28;20028;-51
2021/03/10 07:58:55;;;;;;;;;;;;;;;;;;5085957;28;20031;-51
2021/03/10 08:01:21;;;;;;;28.05;11.13;;;;;;;;;;5083578;28;19912;-51
2021/03/10 08:03:47;;;;;;;21.67;10.40;;;;;;;;;;5077084;28;20032;-51
2021/03/10 08:06:14;;;;;;;34.28;11.60;;;;;;;;;;5074202;28;20021;-51
2021/03/10 08:08:44;;;;;;;29.60;11.43;;;;;;;;;;5070620;28;20115;-51
2021/03/10 08:11:17;;;;;;;28.27;9.73;;;;;;;;;;5072905;28;20048;-51
2021/03/10 08:13:44;;;;;;;27.38;11.00;;;;;;;;;;5076327;28;20369;-51
2021/03/10 08:16:12;;;;;;;27.00;9.88;;;;;;;;;;5075277;28;20040;-51
2021/03/10 08:18:39;;;;;;;28.52;10.70;;;;;;;;;;5071354;28;20021;-51
2021/03/10 08:21:06;;;;;;;21.65;9.77;;;;;;;;;;5069735;28;20034;-51
2021/03/10 08:23:32;;;;;;;28.67;10.15;;;;;;;;;;5070340;28;20119;-51
2021/03/10 08:25:58;;;;;;;28.33;9.85;;;;;;;;;;5073696;28;20028;-51
2021/03/10 08:28:24;;;;;;;24.70;9.00;;;;;;;;;;5088469;28;20035;-51
2021/03/10 08:31:00;;;;;;;32.55;11.10;;;;;;;;;;5081776;28;20032;-51
2021/03/10 08:33:26;;;;;;;34.30;11.82;;;;;;;;;;5090838;28;20020;-51
2021/03/10 08:35:52;;;;;;;27.50;10.13;;;;;;;;;;5078568;28;20370;-51
2021/03/10 08:38:18;;;;;;;26.77;10.82;;;;;;;;;;5072326;28;20032;-51
2021/03/10 08:40:44;;;;;;;26.80;11.65;;;;;;;;;;5070788;28;20036;-51
2021/03/10 08:43:16;;;;;;;27.88;10.05;;;;;;;;;;5071201;28;20033;-51
2021/03/10 08:45:42;;;;;;;26.40;10.18;;;;;;;;;;5080885;28;20172;-51
2021/03/10 08:48:09;;;;;;;26.85;10.73;;;;;;;;;;5089452;28;20441;-51
2021/03/10 08:50:35;;;;;;;14.57;6.57;;;;;;;;;;5070439;28;20105;-51
2021/03/10 08:53:02;;;;;;;24.27;10.32;;;;;;;;;;5078237;28;20055;-51
2021/03/10 08:55:28;;;;;;;29.70;11.40;;;;;;;;;;5080190;28;20045;-51
2021/03/10 08:57:54;;;;;;;28.00;10.27;;;;;;;;;;5058724;28;20033;-51
2021/03/10 09:00:23;;;;;;;29.77;9.68;;;;;;;;;;5076564;28;20023;-51
2021/03/10 09:02:50;;;;;;;24.33;10.32;;;;;;;;;;5088824;28;20056;-51
2021/03/10 09:05:17;;;;;;;26.65;10.32;;;;;;;;;;5076941;28;20024;-51
2021/03/10 09:07:45;;;;;;;27.67;10.05;;;;;;;;;;5057516;28;20556;-51
2021/03/10 09:10:13;;;;;;;17.63;6.68;;;;;;;;;;5069472;28;20028;-51
2021/03/10 09:12:40;;;;;;;14.18;5.88;;;;;;;;;;5062284;28;20035;-51
2021/03/10 09:15:09;;;;;;;24.75;8.35;;;;;;;;;;5063417;28;20500;-51
2021/03/10 09:17:36;;;;;;;24.88;9.68;;;;;;;;;;5062832;28;20401;-51
2021/03/10 09:20:03;;;;;;;35.17;11.27;;;;;;;;;;5065360;28;20024;-51
2021/03/10 09:22:30;;;;;;;29.58;10.73;;;;;;;;;;5064911;28;20462;-51
2021/03/10 09:24:56;;;;;;;29.77;10.27;;;;;;;;;;5066816;28;20067;-51
2021/03/10 09:27:29;;;;;;;16.88;6.53;;;;;;;;;;5067978;28;20450;-51
2021/03/10 09:29:57;;;;;;;14.77;6.00;;;;;;;;;;5061811;28;20025;-51
2021/03/10 09:32:24;;;;;;;27.50;10.60;;;;;;;;;;5068229;28;20020;-51
2021/03/10 09:34:54;;;;;;;27.45;9.95;;;;;;;;;;5065054;28;20036;-51
2021/03/10 09:37:29;;;;;;;29.30;11.13;;;;;;;;;;5071111;28;20048;-50
2021/03/10 09:39:55;;;;;;;25.23;10.68;;;;;;;;;;5080672;28;20032;-51
2021/03/10 09:42:27;;;;;;;28.60;10.52;;;;;;;;;;5088636;28;20055;-51
2021/03/10 09:44:53;;;;;;;29.52;10.93;;;;;;;;;;5066862;28;20102;-51
2021/03/10 09:47:23;;;;;;;25.15;8.77;;;;;;;;;;5081302;28;20021;-51
2021/03/10 09:49:54;;;;;;;24.42;9.32;;;;;;;;;;5075262;28;20032;-51
2021/03/10 09:52:33;;;;;;;26.20;10.70;;;;;;;;;;5081054;28;20028;-51
2021/03/10 09:54:59;;;;;;;21.85;9.70;;;;;;;;;;5078838;28;20032;-51
2021/03/10 09:57:30;;;;;;;31.05;11.25;;;;;;;;;;5064121;28;20470;-51
2021/03/10 09:59:56;;;;;;;26.95;9.45;;;;;;;;;;5088387;28;20039;-51
2021/03/10 10:02:23;;;;;;;29.48;9.98;;;;;;;;;;5065480;28;20115;-51
2021/03/10 10:04:50;;;;;;;25.42;10.07;;;;;;;;;;5083985;28;20039;-51
2021/03/10 10:07:16;;;;;;;27.17;10.77;;;;;;;;;;5078147;28;20028;-51
2021/03/10 10:09:42;;;;;;;28.23;8.95;;;;;;;;;;5077981;28;20051;-51
2021/03/10 10:12:08;;;;;;;26.88;9.90;;;;;;;;;;5088736;28;20434;-51
2021/03/10 10:14:34;;;;;;;26.23;9.15;;;;;;;;;;5072341;28;20028;-51
2021/03/10 10:17:00;;;;;;;20.58;9.00;;;;;;;;;;5071701;28;20040;-51
2021/03/10 10:19:26;;;;;;;16.30;6.20;;;;;;;;;;5084805;28;20024;-51
2021/03/10 10:21:52;;;;;;;17.63;7.75;;;;;;;;;;5076119;28;20107;-51
2021/03/10 10:24:19;;;;;;;21.05;8.75;;;;;;;;;;5092137;28;20020;-51
2021/03/10 10:26:45;;;;;;;17.63;7.82;;;;;;;;;;5069431;28;20727;-51
2021/03/10 10:29:11;;;;;;;23.15;8.63;;;;;;;;;;5074902;28;20060;-51
2021/03/10 10:31:37;;;;;;;19.38;7.65;;;;;;;;;;5078656;28;20029;-51
2021/03/10 10:34:03;;;;;;;29.92;9.30;;;;;;;;;;5089402;28;20046;-51
2021/03/10 10:36:29;;;;;;;16.73;6.78;;;;;;;;;;5089004;28;20039;-51
2021/03/10 10:38:55;;;;;;;15.43;7.10;;;;;;;;;;5066590;28;20111;-51
2021/03/10 10:41:21;;;;;;;13.73;6.10;;;;;;;;;;5070169;28;20108;-51
2021/03/10 10:43:47;;;;;;;14.57;6.32;;;;;;;;;;5066319;28;20064;-51
2021/03/10 10:46:13;;;;;;;15.65;5.97;;;;;;;;;;5069373;28;20036;-51
2021/03/10 10:48:39;;;;;;;15.48;7.10;;;;;;;;;;5063813;28;20107;-50
2021/03/10 10:51:05;;;;;;;13.65;5.25;;;;;;;;;;5071910;28;20116;-51
2021/03/10 10:53:31;;;;;;;19.55;8.93;;;;;;;;;;5066503;28;20024;-51
2021/03/10 10:55:57;;;;;;;24.85;8.38;;;;;;;;;;5064274;28;20087;-51
2021/03/10 10:58:23;;;;;;;19.38;7.57;;;;;;;;;;5066870;28;20027;-51
2021/03/10 11:00:49;;;;;;;18.80;7.85;;;;;;;;;;5075060;28;20029;-51
2021/03/10 11:03:15;;;;;;;18.40;7.03;;;;;;;;;;5072475;28;20021;-51
2021/03/10 11:05:41;;;;;;;19.15;5.68;;;;;;;;;;5070694;28;20460;-51
2021/03/10 11:08:07;;;;;;;22.35;7.45;;;;;;;;;;5069414;28;20074;-51
2021/03/10 11:10:33;;;;;;;26.60;8.55;;;;;;;;;;5056437;28;20116;-51
2021/03/10 11:12:59;;;;;;;21.85;8.57;;;;;;;;;;5074726;28;20111;-51
2021/03/10 11:15:25;;;;;;;14.95;5.43;;;;;;;;;;5069968;28;20048;-51
2021/03/10 11:17:51;;;;;;;20.67;7.25;;;;;;;;;;5062719;28;20029;-51
2021/03/10 11:20:17;;;;;;;23.35;10.57;;;;;;;;;;5068209;28;20085;-51
2021/03/10 11:22:43;;;;;;;19.70;8.27;;;;;;;;;;5082477;28;20099;-51
2021/03/10 11:25:10;;;;;;;15.48;5.70;;;;;;;;;;5086910;28;20113;-51
2021/03/10 11:27:36;;;;;;;20.05;8.05;;;;;;;;;;5087891;28;20032;-51
2021/03/10 11:30:04;;;;;;;16.40;6.88;;;;;;;;;;5078051;28;20350;-51
2021/03/10 11:32:30;;;;;;;21.13;7.18;;;;;;;;;;5080822;28;20073;-51
2021/03/10 11:34:56;;;;;;;16.15;6.32;;;;;;;;;;5093248;28;20047;-51
2021/03/10 11:37:22;;;;;;;20.55;8.27;;;;;;;;;;5076301;28;20043;-51
2021/03/10 11:39:48;;;;;;;18.13;7.18;;;;;;;;;;5069641;28;20418;-51
2021/03/10 11:42:14;;;;;;;10.02;5.25;;;;;;;;;;5067314;28;20028;-51
2021/03/10 11:44:40;;;;;;;14.90;7.25;;;;;;;;;;5065469;28;20040;-51
2021/03/10 11:47:06;;;;;;;20.10;7.57;;;;;;;;;;5084619;28;20021;-51
2021/03/10 11:49:32;;;;;;;14.35;6.32;;;;;;;;;;5087134;28;20024;-51
2021/03/10 11:51:58;;;;;;;18.13;7.63;;;;;;;;;;5067622;28;20025;-51
2021/03/10 11:54:25;;;;;;;13.48;5.70;;;;;;;;;;5070184;28;20088;-51
2021/03/10 11:56:51;;;;;;;12.32;5.22;;;;;;;;;;5081477;28;20033;-51
2021/03/10 11:59:17;;;;;;;17.83;6.95;;;;;;;;;;5075156;28;20361;-51
2021/03/10 12:01:43;;;;;;;13.77;5.90;;;;;;;;;;5068000;28;20017;-51
2021/03/10 12:04:09;;;;;;;18.65;7.40;;;;;;;;;;5064289;28;20524;-51
2021/03/10 12:06:36;;;;;;;17.40;6.30;;;;;;;;;;5067429;28;20028;-51
2021/03/10 12:09:02;;;;;;;13.70;6.20;;;;;;;;;;5073599;28;20345;-51
2021/03/10 12:11:28;;;;;;;16.55;6.72;;;;;;;;;;5068164;28;20032;-51
2021/03/10 12:13:54;;;;;;;14.30;6.28;;;;;;;;;;5072903;28;20033;-51
2021/03/10 12:16:20;;;;;;;18.13;6.95;;;;;;;;;;5077861;28;20024;-51
2021/03/10 12:18:46;;;;;;;14.77;6.40;;;;;;;;;;5074413;28;20027;-50
2021/03/10 12:21:13;;;;;;;15.30;6.75;;;;;;;;;;5073805;28;20107;-51
2021/03/10 12:23:39;;;;;;;18.42;6.63;;;;;;;;;;5079045;28;20024;-51
2021/03/10 12:26:05;;;;;;;19.95;7.50;;;;;;;;;;5079297;28;20016;-51
2021/03/10 12:28:31;;;;;;;14.18;6.40;;;;;;;;;;5079638;28;20111;-51
2021/03/10 12:30:57;;;;;;;14.38;6.30;;;;;;;;;;5071777;28;20107;-51
2021/03/10 12:33:23;;;;;;;14.45;6.55;;;;;;;;;;5081649;28;20066;-51
2021/03/10 12:35:49;;;;;;;12.45;5.43;;;;;;;;;;5084371;28;20059;-51
2021/03/10 12:38:15;;;;;;;14.88;5.82;;;;;;;;;;5057083;28;20068;-51
2021/03/10 12:40:41;;;;;;;18.08;6.75;;;;;;;;;;5076191;28;20126;-51
2021/03/10 12:43:07;;;;;;;14.48;5.43;;;;;;;;;;5082273;28;20547;-51
2021/03/10 12:45:33;;;;;;;14.38;6.45;;;;;;;;;;5067454;28;20095;-51
2021/03/10 12:47:59;;;;;;;13.85;6.00;;;;;;;;;;5064905;28;20067;-51
2021/03/10 12:50:26;;;;;;;14.05;5.80;;;;;;;;;;5084879;28;20103;-51
2021/03/10 12:52:52;;;;;;;18.30;6.78;;;;;;;;;;5085606;28;20401;-51
2021/03/10 12:55:18;;;;;;;14.00;6.30;;;;;;;;;;5079936;28;20446;-51
2021/03/10 12:57:44;;;;;;;17.58;5.60;;;;;;;;;;5074914;28;20115;-51
2021/03/10 13:00:11;;;;;;;16.88;5.50;;;;;;;;;;5075985;28;20524;-51
2021/03/10 13:02:37;;;;;;;17.88;7.32;;;;;;;;;;5087575;28;20024;-51
2021/03/10 13:05:04;;;;;;;14.75;6.07;;;;;;;;;;5074685;28;20036;-51
2021/03/10 13:07:30;;;;;;;12.10;4.53;;;;;;;;;;5076945;28;20039;-51
2021/03/10 13:09:56;;;;;;;14.88;5.65;;;;;;;;;;5076318;28;20074;-51
2021/03/10 13:12:22;;;;;;;11.77;5.28;;;;;;;;;;5078065;28;20020;-51
2021/03/10 13:14:48;;;;;;;16.95;5.25;;;;;;;;;;5062197;28;20058;-51
2021/03/10 13:17:14;;;;;;;12.60;5.63;;;;;;;;;;5065066;28;20520;-51
2021/03/10 13:19:41;;;;;;;13.70;5.22;;;;;;;;;;5063551;28;20021;-51
2021/03/10 13:22:07;;;;;;;14.15;5.55;;;;;;;;;;5065078;28;20033;-51
2021/03/10 13:24:33;;;;;;;11.40;4.78;;;;;;;;;;5067807;28;20024;-51
2021/03/10 13:27:00;;;;;;;13.38;5.63;;;;;;;;;;5064391;28;20021;-51
2021/03/10 13:29:25;;;;;;;11.60;5.05;;;;;;;;;;5078460;28;20073;-51
2021/03/10 13:31:52;;;;;;;10.82;5.10;;;;;;;;;;5073799;28;20021;-51
2021/03/10 13:34:19;;;;;;;11.43;4.72;;;;;;;;;;5087813;28;20118;-51
2021/03/10 13:36:45;;;;;;;13.73;5.32;;;;;;;;;;5071901;28;20056;-51
2021/03/10 13:39:12;;;;;;;11.05;4.80;;;;;;;;;;5062947;28;20017;-51
2021/03/10 13:41:40;;;;;;;9.98;3.80;;;;;;;;;;5084456;28;20423;-52
2021/03/10 13:44:06;;;;;;;12.50;4.25;;;;;;;;;;5086374;28;20024;-51
2021/03/10 13:46:32;;;;;;;13.82;5.07;;;;;;;;;;5072520;28;20017;-51
2021/03/10 13:48:58;;;;;;;9.50;4.47;;;;;;;;;;5069076;28;20021;-51
2021/03/10 13:51:24;;;;;;;13.10;5.57;;;;;;;;;;5076074;28;20582;-51
2021/03/10 13:53:51;;;;;;;11.65;5.30;;;;;;;;;;5087051;28;20055;-51
2021/03/10 13:56:17;;;;;;;9.02;4.72;;;;;;;;;;5075853;28;20029;-51
2021/03/10 13:58:44;;;;;;;10.65;5.05;;;;;;;;;;5071688;28;20020;-51
2021/03/10 14:01:10;;;;;;;14.65;6.03;;;;;;;;;;5081651;28;20024;-51
2021/03/10 14:03:36;;;;;;;14.55;5.68;;;;;;;;;;5082039;28;20024;-51
2021/03/10 14:06:02;;;;;;;10.43;3.70;;;;;;;;;;5061578;28;20342;-51
2021/03/10 14:08:28;;;;;;;10.57;4.97;;;;;;;;;;5089701;28;20025;-51
2021/03/10 14:10:54;;;;;;;15.70;6.07;;;;;;;;;;5077725;28;20115;-51
2021/03/10 14:13:20;;;;;;;12.10;5.38;;;;;;;;;;5080842;28;20092;-51
2021/03/10 14:15:46;;;;;;;9.48;5.10;;;;;;;;;;5075959;28;20140;-51
2021/03/10 14:18:12;;;;;;;13.35;4.80;;;;;;;;;;5060232;28;20021;-51
2021/03/10 14:20:38;;;;;;;12.02;4.88;;;;;;;;;;5084083;28;20038;-51
2021/03/10 14:23:04;;;;;;;14.95;5.45;;;;;;;;;;5086728;28;20524;-51
2021/03/10 14:25:30;;;;;;;9.55;4.32;;;;;;;;;;5088339;28;20246;-51